createdAt,value
2019-03-17T00:01:36.512Z,8.03
2019-03-17T00:04:10.986Z,8.00
2019-03-17T00:06:42.766Z,7.99
2019-03-17T00:09:14.603Z,7.97
2019-03-17T00:11:46.528Z,8.00
2019-03-17T00:14:21.273Z,7.96
2019-03-17T00:16:53.036Z,7.99
2019-03-17T00:19:27.499Z,8.03
2019-03-17T00:21:59.877Z,8.02
2019-03-17T00:24:31.779Z,8.03
2019-03-17T00:27:05.485Z,8.03
2019-03-17T00:29:36.932Z,8.06
2019-03-17T00:32:11.231Z,8.00
2019-03-17T00:34:44.458Z,7.90
2019-03-17T00:37:16.694Z,7.91
2019-03-17T00:39:49.008Z,7.87
2019-03-17T00:42:21.240Z,7.65
2019-03-17T00:44:52.950Z,7.62
2019-03-17T00:47:24.765Z,7.60
2019-03-17T00:49:56.760Z,7.60
2019-03-17T00:52:28.528Z,7.65
2019-03-17T00:55:00.414Z,7.71
2019-03-17T00:57:32.226Z,7.75
2019-03-17T01:00:05.143Z,7.73
2019-03-17T01:02:37.125Z,7.69
2019-03-17T01:05:09.059Z,7.74
2019-03-17T01:07:42.260Z,7.81
2019-03-17T01:10:14.884Z,7.81
2019-03-17T01:12:46.676Z,7.82
2019-03-17T01:15:18.416Z,7.81
2019-03-17T01:17:51.775Z,7.79
2019-03-17T01:20:23.491Z,7.75
2019-03-17T01:22:55.166Z,7.74
2019-03-17T01:25:26.912Z,7.84
2019-03-17T01:27:58.640Z,7.82
2019-03-17T01:30:30.337Z,7.75
2019-03-17T01:33:02.295Z,7.64
2019-03-17T01:35:34.245Z,7.60
2019-03-17T01:38:07.776Z,7.59
2019-03-17T01:40:39.399Z,7.61
2019-03-17T01:43:11.115Z,7.57
2019-03-17T01:45:47.435Z,7.63
2019-03-17T01:48:19.805Z,7.71
2019-03-17T01:50:51.639Z,7.80
2019-03-17T01:53:25.001Z,7.68
2019-03-17T01:55:56.671Z,7.76
2019-03-17T01:58:28.419Z,7.82
2019-03-17T02:01:00.062Z,7.79
2019-03-17T02:03:32.058Z,7.76
2019-03-17T02:06:03.904Z,7.82
2019-03-17T02:08:37.005Z,7.86
2019-03-17T02:11:08.860Z,7.82
2019-03-17T02:13:40.575Z,7.80
2019-03-17T02:16:12.281Z,7.83
2019-03-17T02:18:44.023Z,7.72
2019-03-17T02:21:15.531Z,7.72
2019-03-17T02:23:47.323Z,7.75
2019-03-17T02:26:19.138Z,7.79
2019-03-17T02:28:50.973Z,7.73
2019-03-17T02:31:22.660Z,7.70
2019-03-17T02:33:54.442Z,7.68
2019-03-17T02:36:26.325Z,7.65
2019-03-17T02:38:58.197Z,7.70
2019-03-17T02:41:31.781Z,7.69
2019-03-17T02:44:03.521Z,7.67
2019-03-17T02:46:35.365Z,7.58
2019-03-17T02:49:07.158Z,7.59
2019-03-17T02:51:40.448Z,7.52
2019-03-17T02:54:12.190Z,7.48
2019-03-17T02:56:43.864Z,7.43
2019-03-17T02:59:15.568Z,7.43
2019-03-17T03:01:47.227Z,7.45
2019-03-17T03:04:19.060Z,7.41
2019-03-17T03:06:50.933Z,7.42
2019-03-17T03:09:22.773Z,7.43
2019-03-17T03:11:54.562Z,7.36
2019-03-17T03:14:26.536Z,7.29
2019-03-17T03:16:58.269Z,7.16
2019-03-17T03:19:30.942Z,7.14
2019-03-17T03:22:02.766Z,7.15
2019-03-17T03:24:34.678Z,7.10
2019-03-17T03:27:07.894Z,6.97
2019-03-17T03:29:41.835Z,6.95
2019-03-17T03:32:13.561Z,7.09
2019-03-17T03:34:45.399Z,7.12
2019-03-17T03:37:17.220Z,7.14
2019-03-17T03:39:49.048Z,7.04
2019-03-17T03:42:20.877Z,7.03
2019-03-17T03:44:52.589Z,6.95
2019-03-17T03:47:24.334Z,6.88
2019-03-17T03:49:57.278Z,6.74
2019-03-17T03:52:29.310Z,6.83
2019-03-17T03:55:03.788Z,6.67
2019-03-17T03:57:35.504Z,6.63
2019-03-17T04:00:07.671Z,6.63
2019-03-17T04:02:39.502Z,6.67
2019-03-17T04:05:11.254Z,6.71
2019-03-17T04:07:43.042Z,6.73
2019-03-17T04:10:16.170Z,6.78
2019-03-17T04:12:48.338Z,6.75
2019-03-17T04:15:20.188Z,6.72
2019-03-17T04:17:52.013Z,6.82
2019-03-17T04:20:23.849Z,6.80
2019-03-17T04:22:55.639Z,6.76
2019-03-17T04:25:27.639Z,6.79
2019-03-17T04:27:59.442Z,6.83
2019-03-17T04:30:31.246Z,6.94
2019-03-17T04:33:03.281Z,6.92
2019-03-17T04:35:35.029Z,6.94
2019-03-17T04:38:06.853Z,6.91
2019-03-17T04:40:38.738Z,6.92
2019-03-17T04:43:10.524Z,6.94
2019-03-17T04:45:42.289Z,6.94
2019-03-17T04:48:14.029Z,6.97
2019-03-17T04:50:45.999Z,7.05
2019-03-17T04:53:17.782Z,7.12
2019-03-17T04:55:49.585Z,7.11
2019-03-17T04:58:22.842Z,7.08
2019-03-17T05:00:54.493Z,7.13
2019-03-17T05:03:26.340Z,7.13
2019-03-17T05:05:58.183Z,7.14
2019-03-17T05:08:30.088Z,7.18
2019-03-17T05:11:02.208Z,7.31
2019-03-17T05:13:34.004Z,7.41
2019-03-17T05:16:05.925Z,7.60
2019-03-17T05:18:40.126Z,7.83
2019-03-17T05:21:11.892Z,7.96
2019-03-17T05:23:43.665Z,8.05
2019-03-17T05:26:15.382Z,8.16
2019-03-17T05:28:47.267Z,8.19
2019-03-17T05:31:19.073Z,8.30
2019-03-17T05:33:52.376Z,8.40
2019-03-17T05:36:24.751Z,8.49
2019-03-17T05:38:56.500Z,8.61
2019-03-17T05:41:28.414Z,8.71
2019-03-17T05:44:00.159Z,8.69
2019-03-17T05:46:31.902Z,8.73
2019-03-17T05:49:03.718Z,8.71
2019-03-17T05:51:36.701Z,8.77
2019-03-17T05:54:08.420Z,8.82
2019-03-17T05:56:40.138Z,8.84
2019-03-17T05:59:12.004Z,8.89
2019-03-17T06:01:44.047Z,8.90
2019-03-17T06:04:17.141Z,8.90
2019-03-17T06:06:48.883Z,8.96
2019-03-17T06:09:20.608Z,9.04
2019-03-17T06:11:52.362Z,9.12
2019-03-17T06:14:24.170Z,9.18
2019-03-17T06:16:56.092Z,9.25
2019-03-17T06:19:27.804Z,9.19
2019-03-17T06:22:00.626Z,9.22
2019-03-17T06:24:33.201Z,9.23
2019-03-17T06:27:05.080Z,9.21
2019-03-17T06:29:38.313Z,9.31
2019-03-17T06:32:10.385Z,9.34
2019-03-17T06:34:42.294Z,9.36
2019-03-17T06:37:14.110Z,9.39
2019-03-17T06:39:45.802Z,9.51
2019-03-17T06:42:17.529Z,9.58
2019-03-17T06:44:49.399Z,9.67
2019-03-17T06:47:21.174Z,9.67
2019-03-17T06:49:54.658Z,9.80
2019-03-17T06:52:26.366Z,10.03
2019-03-17T06:54:58.159Z,10.16
2019-03-17T06:57:29.817Z,10.25
2019-03-17T07:00:01.483Z,10.41
2019-03-17T07:02:33.402Z,10.47
2019-03-17T07:05:05.364Z,10.59
2019-03-17T07:07:43.920Z,10.72
2019-03-17T07:10:10.901Z,10.93
2019-03-17T07:12:43.123Z,11.10
2019-03-17T07:15:15.189Z,11.22
2019-03-17T07:17:46.982Z,11.55
2019-03-17T07:20:18.652Z,11.55
2019-03-17T07:22:50.535Z,11.73
2019-03-17T07:25:22.407Z,11.73
2019-03-17T07:27:54.156Z,11.68
2019-03-17T07:30:26.016Z,11.68
2019-03-17T07:33:00.520Z,11.60
2019-03-17T07:35:32.275Z,11.59
2019-03-17T07:38:04.071Z,11.66
2019-03-17T07:40:35.919Z,11.66
2019-03-17T07:43:07.749Z,11.71
2019-03-17T07:45:40.625Z,11.76
2019-03-17T07:48:15.071Z,11.76
2019-03-17T07:50:46.844Z,11.65
2019-03-17T07:53:18.819Z,11.56
2019-03-17T07:55:50.620Z,11.28
2019-03-17T07:58:22.282Z,11.21
2019-03-17T08:00:54.038Z,11.22
2019-03-17T08:03:25.971Z,11.43
2019-03-17T08:05:59.028Z,11.58
2019-03-17T08:08:30.932Z,11.50
2019-03-17T08:11:02.737Z,11.57
2019-03-17T08:13:34.642Z,11.57
2019-03-17T08:16:06.432Z,11.56
2019-03-17T08:18:38.113Z,11.69
2019-03-17T08:21:09.972Z,11.95
2019-03-17T08:23:41.832Z,12.27
2019-03-17T08:26:13.681Z,12.45
2019-03-17T08:28:45.696Z,12.65
2019-03-17T08:31:17.552Z,12.74
2019-03-17T08:33:49.497Z,12.53
2019-03-17T08:36:21.260Z,12.57
2019-03-17T08:38:53.199Z,12.71
2019-03-17T08:41:24.888Z,12.85
2019-03-17T08:43:57.634Z,12.75
2019-03-17T08:46:29.519Z,12.71
2019-03-17T08:49:04.248Z,12.68
2019-03-17T08:51:36.138Z,12.63
2019-03-17T08:54:08.124Z,12.67
2019-03-17T08:56:40.015Z,12.67
2019-03-17T08:59:14.973Z,13.00
2019-03-17T09:01:47.721Z,13.20
2019-03-17T09:04:19.917Z,13.06
2019-03-17T09:06:51.682Z,13.00
2019-03-17T09:09:23.532Z,12.88
2019-03-17T09:11:55.260Z,12.89
2019-03-17T09:14:28.574Z,13.05
2019-03-17T09:17:13.448Z,13.28
2019-03-17T09:19:34.056Z,13.28
2019-03-17T09:22:05.858Z,13.33
2019-03-17T09:24:40.064Z,13.45
2019-03-17T09:27:11.846Z,13.38
2019-03-17T09:29:43.789Z,13.41
2019-03-17T09:32:15.623Z,13.35
2019-03-17T09:34:47.529Z,13.67
2019-03-17T09:37:19.439Z,13.66
2019-03-17T09:39:51.175Z,13.84
2019-03-17T09:42:22.897Z,14.10
2019-03-17T09:44:54.817Z,14.07
2019-03-17T09:47:28.377Z,14.01
2019-03-17T09:50:00.382Z,13.98
2019-03-17T09:52:32.318Z,13.95
2019-03-17T09:55:04.284Z,13.96
2019-03-17T09:57:36.137Z,13.92
2019-03-17T10:00:08.876Z,14.01
2019-03-17T10:02:40.746Z,14.28
2019-03-17T10:05:12.853Z,14.31
2019-03-17T10:07:44.806Z,14.52
2019-03-17T10:10:16.926Z,14.67
2019-03-17T10:12:51.407Z,14.63
2019-03-17T10:15:23.103Z,14.70
2019-03-17T10:17:54.929Z,14.78
2019-03-17T10:20:26.771Z,14.85
2019-03-17T10:22:58.715Z,14.76
2019-03-17T10:25:30.449Z,14.69
2019-03-17T10:28:02.375Z,15.08
2019-03-17T10:30:34.145Z,15.30
2019-03-17T10:33:06.064Z,15.25
2019-03-17T10:35:37.851Z,15.07
2019-03-17T10:38:09.498Z,14.96
2019-03-17T10:40:41.215Z,14.97
2019-03-17T10:43:12.971Z,14.95
2019-03-17T10:45:44.890Z,14.93
2019-03-17T10:48:18.960Z,14.63
2019-03-17T10:50:53.339Z,14.68
2019-03-17T10:53:25.195Z,14.64
2019-03-17T10:55:56.953Z,14.56
2019-03-17T10:58:29.981Z,14.50
2019-03-17T11:01:01.794Z,14.58
2019-03-17T11:03:34.746Z,15.04
2019-03-17T11:06:06.533Z,15.10
2019-03-17T11:08:38.273Z,15.06
2019-03-17T11:11:12.137Z,15.06
2019-03-17T11:13:43.735Z,15.22
2019-03-17T11:16:15.464Z,15.08
2019-03-17T11:18:48.419Z,15.46
2019-03-17T11:21:20.429Z,15.32
2019-03-17T11:23:52.618Z,15.54
2019-03-17T11:26:24.403Z,15.67
2019-03-17T11:28:56.154Z,15.66
2019-03-17T11:31:27.859Z,15.16
2019-03-17T11:34:00.042Z,15.30
2019-03-17T11:36:31.978Z,15.36
2019-03-17T11:39:03.849Z,15.19
2019-03-17T11:41:35.585Z,14.94
2019-03-17T11:44:07.265Z,14.96
2019-03-17T11:46:39.227Z,14.94
2019-03-17T11:49:11.174Z,14.90
2019-03-17T11:51:43.085Z,14.70
2019-03-17T11:54:14.905Z,14.66
2019-03-17T11:56:47.020Z,14.76
2019-03-17T11:59:18.719Z,14.85
2019-03-17T12:01:51.096Z,15.09
2019-03-17T12:04:22.761Z,15.31
2019-03-17T12:06:57.448Z,15.29
2019-03-17T12:09:29.507Z,15.18
2019-03-17T12:12:03.210Z,15.21
2019-03-17T12:14:35.232Z,15.40
2019-03-17T12:17:08.475Z,15.04
2019-03-17T12:19:40.329Z,15.04
2019-03-17T12:22:12.154Z,14.73
2019-03-17T12:24:43.919Z,14.50
2019-03-17T12:27:15.660Z,14.42
2019-03-17T12:29:47.356Z,14.10
2019-03-17T12:32:19.104Z,14.25
2019-03-17T12:34:50.943Z,14.11
2019-03-17T12:37:22.848Z,13.77
2019-03-17T12:40:02.540Z,13.90
2019-03-17T12:42:28.214Z,13.65
2019-03-17T12:45:02.890Z,13.62
2019-03-17T12:47:37.179Z,13.68
2019-03-17T12:50:08.158Z,13.60
2019-03-17T12:52:42.131Z,13.47
2019-03-17T12:55:13.753Z,13.33
2019-03-17T12:57:46.851Z,13.13
2019-03-17T13:00:20.472Z,13.04
2019-03-17T13:02:52.303Z,13.00
2019-03-17T13:05:24.269Z,12.90
2019-03-17T13:07:56.317Z,12.80
2019-03-17T13:10:28.144Z,12.73
2019-03-17T13:13:00.054Z,12.60
2019-03-17T13:15:37.151Z,12.56
2019-03-17T13:18:09.094Z,12.58
2019-03-17T13:20:41.023Z,12.57
2019-03-17T13:23:12.880Z,12.55
2019-03-17T13:25:44.721Z,12.65
2019-03-17T13:28:16.444Z,12.78
2019-03-17T13:30:48.311Z,12.68
2019-03-17T13:33:20.087Z,12.65
2019-03-17T13:35:51.866Z,12.50
2019-03-17T13:38:23.704Z,12.36
2019-03-17T13:40:55.618Z,12.15
2019-03-17T13:43:27.620Z,12.09
2019-03-17T13:45:59.408Z,11.95
2019-03-17T13:48:31.169Z,11.94
2019-03-17T13:51:03.039Z,11.91
2019-03-17T13:53:35.062Z,11.86
2019-03-17T13:56:06.923Z,11.94
2019-03-17T13:58:39.808Z,11.96
2019-03-17T14:01:11.633Z,11.96
2019-03-17T14:03:44.684Z,11.88
2019-03-17T14:06:16.520Z,11.74
2019-03-17T14:08:50.965Z,11.79
2019-03-17T14:11:22.807Z,11.96
2019-03-17T14:13:54.603Z,12.05
2019-03-17T14:16:26.585Z,12.05
2019-03-17T14:18:58.409Z,12.06
2019-03-17T14:21:30.251Z,11.77
2019-03-17T14:24:03.250Z,11.77
2019-03-17T14:26:35.146Z,11.73
2019-03-17T14:29:07.124Z,11.73
2019-03-17T14:31:38.907Z,11.65
2019-03-17T14:34:11.022Z,11.67
2019-03-17T14:36:42.738Z,11.58
2019-03-17T14:39:14.646Z,11.47
2019-03-17T14:41:46.614Z,11.38
2019-03-17T14:44:19.058Z,11.32
2019-03-17T14:46:55.338Z,11.37
2019-03-17T14:49:27.071Z,11.15
2019-03-17T14:51:58.761Z,10.99
2019-03-17T14:54:30.714Z,10.94
2019-03-17T14:57:02.414Z,10.84
2019-03-17T14:59:38.161Z,10.74
2019-03-17T15:02:09.986Z,10.75
2019-03-17T15:04:41.744Z,10.75
2019-03-17T15:07:13.533Z,10.74
2019-03-17T15:09:45.424Z,10.79
2019-03-17T15:12:23.891Z,10.69
2019-03-17T15:14:55.779Z,10.72
2019-03-17T15:17:27.688Z,10.65
2019-03-17T15:19:59.387Z,10.70
2019-03-17T15:22:35.205Z,10.73
2019-03-17T15:25:07.716Z,10.67
2019-03-17T15:27:41.850Z,10.73
2019-03-17T15:30:18.936Z,10.73
2019-03-17T15:32:50.686Z,10.59
2019-03-17T15:35:22.400Z,10.49
2019-03-17T15:37:54.331Z,10.43
2019-03-17T15:40:28.701Z,10.38
2019-03-17T15:43:00.474Z,10.38
2019-03-17T15:45:32.452Z,10.32
2019-03-17T15:48:04.528Z,10.33
2019-03-17T15:50:40.671Z,10.27
2019-03-17T15:53:12.765Z,10.20
2019-03-17T15:55:44.636Z,10.19
2019-03-17T15:58:18.034Z,10.03
2019-03-17T16:00:51.261Z,9.89
2019-03-17T16:03:23.029Z,9.79
2019-03-17T16:05:56.262Z,9.80
2019-03-17T16:08:29.901Z,9.80
2019-03-17T16:11:01.915Z,9.77
2019-03-17T16:13:33.809Z,9.80
2019-03-17T16:16:06.009Z,9.81
2019-03-17T16:18:37.943Z,9.79
2019-03-17T16:21:09.756Z,9.79
2019-03-17T16:23:42.316Z,9.73
2019-03-17T16:26:14.069Z,9.69
2019-03-17T16:28:45.885Z,9.73
2019-03-17T16:33:49.653Z,9.80
2019-03-17T16:36:21.564Z,9.50
2019-03-17T16:38:54.852Z,9.78
2019-03-17T16:41:26.549Z,9.75
2019-03-17T16:43:58.386Z,9.73
2019-03-17T16:46:30.123Z,9.77
2019-03-17T16:49:01.903Z,9.74
2019-03-17T16:51:33.771Z,9.75
2019-03-17T16:54:05.613Z,9.72
2019-03-17T16:56:37.503Z,9.76
2019-03-17T16:59:10.423Z,9.71
2019-03-17T17:01:45.044Z,9.61
2019-03-17T17:04:19.843Z,9.63
2019-03-17T17:06:53.293Z,9.61
2019-03-17T17:09:25.147Z,9.62
2019-03-17T17:11:57.532Z,9.58
2019-03-17T17:14:29.646Z,9.65
2019-03-17T17:17:01.543Z,9.69
2019-03-17T17:19:33.862Z,9.73
2019-03-17T17:22:05.740Z,9.76
2019-03-17T17:24:37.766Z,9.81
2019-03-17T17:27:09.607Z,9.84
2019-03-17T17:29:41.409Z,9.90
2019-03-17T17:32:13.150Z,9.89
2019-03-17T17:34:45.133Z,9.94
2019-03-17T17:37:17.004Z,9.96
2019-03-17T17:39:48.898Z,9.96
2019-03-17T17:42:22.919Z,10.00
2019-03-17T17:44:54.749Z,10.02
2019-03-17T17:47:26.547Z,10.04
2019-03-17T17:49:58.374Z,10.08
2019-03-17T17:52:30.014Z,10.08
2019-03-17T17:55:04.839Z,10.14
2019-03-17T17:57:36.757Z,10.15
2019-03-17T18:00:12.657Z,10.19
2019-03-17T18:02:44.420Z,10.26
2019-03-17T18:05:16.713Z,10.27
2019-03-17T18:07:48.463Z,10.34
2019-03-17T18:10:20.522Z,10.44
2019-03-17T18:12:52.398Z,10.49
2019-03-17T18:15:24.289Z,10.52
2019-03-17T18:17:57.773Z,10.63
2019-03-17T18:20:29.686Z,10.66
2019-03-17T18:23:01.455Z,10.76
2019-03-17T18:25:33.297Z,10.93
2019-03-17T18:28:06.118Z,10.93
2019-03-17T18:30:37.973Z,10.97
2019-03-17T18:33:09.874Z,10.91
2019-03-17T18:35:41.629Z,10.88
2019-03-17T18:38:13.422Z,10.86
2019-03-17T18:40:46.730Z,10.91
2019-03-17T18:43:18.620Z,10.97
2019-03-17T18:45:50.536Z,11.01
2019-03-17T18:48:23.771Z,11.00
2019-03-17T18:50:55.668Z,10.97
2019-03-17T18:53:30.472Z,10.92
2019-03-17T18:56:02.328Z,10.93
2019-03-17T19:01:03.377Z,10.73
2019-03-17T19:03:36.384Z,10.65
2019-03-17T19:06:09.752Z,10.65
2019-03-17T19:08:42.791Z,10.57
2019-03-17T19:11:15.896Z,10.51
2019-03-17T19:13:50.143Z,10.45
2019-03-17T19:16:22.079Z,10.33
2019-03-17T19:18:55.489Z,10.24
2019-03-17T19:21:27.246Z,10.19
2019-03-17T19:23:58.981Z,10.18
2019-03-17T19:26:30.779Z,10.16
2019-03-17T19:29:05.116Z,10.16
2019-03-17T19:31:37.275Z,10.18
2019-03-17T19:34:09.140Z,10.16
2019-03-17T19:36:41.063Z,10.09
2019-03-17T19:39:13.014Z,10.09
2019-03-17T19:41:44.783Z,10.16
2019-03-17T19:44:17.604Z,10.13
2019-03-17T19:46:49.731Z,10.15
2019-03-17T19:49:21.763Z,10.14
2019-03-17T19:51:52.601Z,10.24
2019-03-17T19:54:24.390Z,10.24
2019-03-17T19:56:56.133Z,10.23
2019-03-17T19:59:29.255Z,10.20
2019-03-17T20:02:00.999Z,10.08
2019-03-17T20:04:35.583Z,10.00
2019-03-17T20:07:09.021Z,9.93
2019-03-17T20:09:40.779Z,9.89
2019-03-17T20:12:12.519Z,9.85
2019-03-17T20:14:46.682Z,9.80
2019-03-17T20:17:20.323Z,9.77
2019-03-17T20:19:52.165Z,9.73
2019-03-17T20:22:24.115Z,9.75
2019-03-17T20:24:55.949Z,9.82
2019-03-17T20:27:30.684Z,9.91
2019-03-17T20:30:01.111Z,9.94
2019-03-17T20:32:33.147Z,10.05
2019-03-17T20:35:11.398Z,10.12
2019-03-17T20:37:46.314Z,10.18
2019-03-17T20:40:18.053Z,10.21
2019-03-17T20:42:51.205Z,10.30
2019-03-17T20:45:26.193Z,10.39
2019-03-17T20:47:58.156Z,10.23
2019-03-17T20:50:30.004Z,10.23
2019-03-17T20:53:01.967Z,10.12
2019-03-17T20:55:33.982Z,10.02
2019-03-17T20:58:05.726Z,9.96
2019-03-17T21:00:37.469Z,9.98
2019-03-17T21:03:09.501Z,10.04
2019-03-17T21:05:42.516Z,9.97
2019-03-17T21:08:14.481Z,9.89
2019-03-17T21:10:44.998Z,9.82
2019-03-17T21:13:16.798Z,9.88
2019-03-17T21:15:48.691Z,9.97
2019-03-17T21:18:20.595Z,10.08
2019-03-17T21:20:52.491Z,10.15
2019-03-17T21:23:24.859Z,10.20
2019-03-17T21:25:56.704Z,10.27
2019-03-17T21:28:30.714Z,10.20
2019-03-17T21:31:02.582Z,10.18
2019-03-17T21:33:34.835Z,10.21
2019-03-17T21:36:08.682Z,10.30
2019-03-17T21:38:42.228Z,10.37
2019-03-17T21:41:14.103Z,10.41
2019-03-17T21:43:58.508Z,10.41
2019-03-17T21:46:20.441Z,10.39
2019-03-17T21:48:54.818Z,10.39
2019-03-17T21:51:28.161Z,10.39
2019-03-17T21:54:02.190Z,10.39
2019-03-17T21:56:33.846Z,10.36
2019-03-17T21:59:06.437Z,10.48
2019-03-17T22:01:38.290Z,10.50
2019-03-17T22:04:10.243Z,10.58
2019-03-17T22:06:42.086Z,10.63
2019-03-17T22:09:17.085Z,10.63
2019-03-17T22:11:47.741Z,10.71
2019-03-17T22:14:20.710Z,10.70
2019-03-17T22:16:52.448Z,10.68
2019-03-17T22:19:24.481Z,10.65
2019-03-17T22:21:58.270Z,10.58
2019-03-17T22:24:31.444Z,10.61
2019-03-17T22:27:03.447Z,10.76
2019-03-17T22:29:35.354Z,10.89
2019-03-17T22:32:07.191Z,10.89
2019-03-17T22:34:38.952Z,10.91
2019-03-17T22:37:13.635Z,10.93
2019-03-17T22:39:46.965Z,10.90
2019-03-17T22:42:18.800Z,10.71
2019-03-17T22:44:50.638Z,10.71
2019-03-17T22:47:22.886Z,10.52
2019-03-17T22:49:55.194Z,10.52
2019-03-17T22:52:27.084Z,10.49
2019-03-17T22:54:58.813Z,10.49
2019-03-17T22:57:30.652Z,10.46
2019-03-17T23:00:02.504Z,10.52
2019-03-17T23:02:34.912Z,10.57
2019-03-17T23:05:06.842Z,10.45
2019-03-17T23:07:38.749Z,10.18
2019-03-17T23:10:11.289Z,10.07
2019-03-17T23:12:45.593Z,10.04
2019-03-17T23:15:17.449Z,10.03
2019-03-17T23:17:49.305Z,10.14
2019-03-17T23:20:22.110Z,10.09
2019-03-17T23:22:54.495Z,9.70
2019-03-17T23:25:27.097Z,9.63
2019-03-17T23:28:00.490Z,9.57
2019-03-17T23:33:03.113Z,9.57
2019-03-17T23:35:34.896Z,9.39
2019-03-17T23:38:25.707Z,9.18
2019-03-17T23:40:58.868Z,9.27
2019-03-17T23:43:30.821Z,9.27
2019-03-17T23:46:07.139Z,9.33
2019-03-17T23:48:38.875Z,9.36
2019-03-17T23:51:12.102Z,9.35
2019-03-17T23:53:44.057Z,9.33
2019-03-17T23:56:17.429Z,9.32
2019-03-17T23:58:49.233Z,9.33
